Terminal Aerodrome Forecast
Issued by NWS La Crosse, WI

Home | Current Version | Previous Version | Text Only | Print | Product List | Glossary On
Versions: 1 2 3 4 5 6 7 8 9 10 11 12 13 14 15 16 17 18
000
FTUS43 KARX 171444 AAA
TAFRST
TAF AMD
KRST 171444Z 1715/1812 31015KT 3SM BR OVC003
     FM171700 32015KT P6SM BKN012
     FM171900 32013KT P6SM SCT020
     FM180000 35006KT P6SM SKC=

USA.gov is the U.S. government's official web portal to all federal, state and local government web resources and services.